Time;durP1;ratioP1;P1;durP2;ratioP2;P2;SDS_P1;SDS_P2;PMS_P1;PMS_P2;Temp;Humidity;BMP_temperature;BMP_pressure;BME280_temperature;BME280_humidity;BME280_pressure;Samples;Min_cycle;Max_cycle;Signal;HPM_P1;HPM_P2
2021/03/03 00:00:00;;;;;;;65.60;31.98;;;2.30;96.70;;;;;;2024174;29;20125;-69
2021/03/03 00:01:03;;;;;;;61.45;30.38;;;2.30;96.70;;;;;;2024370;29;20044;-69
2021/03/03 00:02:03;;;;;;;65.40;31.45;;;2.30;96.70;;;;;;2032804;29;20067;-69
2021/03/03 00:03:07;;;;;;;64.15;31.52;;;2.30;96.70;;;;;;2032816;29;20480;-70
2021/03/03 00:04:08;;;;;;;64.65;30.58;;;2.30;96.70;;;;;;2024133;29;20523;-69
2021/03/03 00:05:09;;;;;;;61.25;30.38;;;2.30;96.60;;;;;;2024436;29;20029;-70
2021/03/03 00:06:11;;;;;;;62.15;30.20;;;2.30;96.60;;;;;;2032870;29;20136;-70
2021/03/03 00:07:13;;;;;;;63.08;30.38;;;2.30;96.50;;;;;;2023865;29;20127;-69
2021/03/03 00:08:14;;;;;;;68.43;32.08;;;2.30;96.70;;;;;;2024780;29;20036;-69
2021/03/03 00:09:14;;;;;;;68.45;32.42;;;2.30;96.60;;;;;;2032850;29;20067;-70
2021/03/03 00:10:15;;;;;;;60.50;30.63;;;2.30;96.60;;;;;;2033436;29;20036;-70
2021/03/03 00:11:15;;;;;;;64.60;31.42;;;2.30;96.60;;;;;;2025160;29;20108;-70
2021/03/03 00:12:16;;;;;;;63.95;30.70;;;2.30;96.60;;;;;;2025011;29;20036;-70
2021/03/03 00:13:16;;;;;;;63.38;30.98;;;2.30;96.60;;;;;;2033441;29;20028;-70
2021/03/03 00:14:17;;;;;;;65.45;32.08;;;2.30;96.60;;;;;;2033210;29;20473;-70
2021/03/03 00:15:18;;;;;;;62.55;31.00;;;2.30;96.60;;;;;;2033097;29;20046;-70
2021/03/03 00:16:18;;;;;;;67.63;32.47;;;2.30;96.60;;;;;;2033675;29;20028;-70
2021/03/03 00:17:19;;;;;;;65.03;31.45;;;2.30;96.60;;;;;;2032521;29;20104;-69
2021/03/03 00:18:19;;;;;;;60.85;30.33;;;2.20;96.60;;;;;;2024392;29;20024;-70
2021/03/03 00:19:20;;;;;;;66.82;32.40;;;2.20;96.70;;;;;;2016319;29;20041;-70
2021/03/03 00:20:20;;;;;;;63.55;30.45;;;2.20;96.80;;;;;;2024375;29;20033;-70
2021/03/03 00:21:21;;;;;;;65.75;30.55;;;2.20;96.80;;;;;;2033284;29;20024;-69
2021/03/03 00:22:22;;;;;;;64.75;30.70;;;2.20;96.70;;;;;;2034129;29;20774;-69
2021/03/03 00:23:22;;;;;;;64.20;31.05;;;2.30;96.70;;;;;;2034228;29;20035;-70
2021/03/03 00:24:23;;;;;;;62.13;30.50;;;2.20;96.70;;;;;;2034074;29;20031;-70
2021/03/03 00:25:23;;;;;;;64.65;31.40;;;2.20;96.70;;;;;;2034011;29;20064;-69
2021/03/03 00:26:27;;;;;;;62.03;29.52;;;2.20;96.80;;;;;;2034103;29;20055;-69
2021/03/03 00:27:28;;;;;;;66.40;31.02;;;2.20;96.80;;;;;;2034137;29;20072;-69
2021/03/03 00:28:28;;;;;;;65.03;31.63;;;2.20;96.90;;;;;;2034093;29;20035;-69
2021/03/03 00:29:29;;;;;;;61.88;31.05;;;2.30;96.90;;;;;;2033777;29;20057;-69
2021/03/03 00:30:29;;;;;;;67.47;31.10;;;2.30;96.90;;;;;;2034111;29;20036;-69
2021/03/03 00:31:30;;;;;;;64.75;30.70;;;2.30;96.80;;;;;;2034022;29;20036;-70
2021/03/03 00:32:31;;;;;;;64.47;30.48;;;2.30;96.80;;;;;;2025574;29;20074;-69
2021/03/03 00:33:31;;;;;;;59.38;29.05;;;2.30;96.70;;;;;;2025658;29;20085;-69
2021/03/03 00:34:32;;;;;;;59.80;29.55;;;2.30;96.70;;;;;;2034033;29;20039;-72
2021/03/03 00:35:33;;;;;;;58.85;29.13;;;2.30;96.70;;;;;;2033981;29;20095;-69
2021/03/03 00:36:33;;;;;;;58.95;29.50;;;2.30;96.70;;;;;;2034355;29;20102;-70
2021/03/03 00:37:34;;;;;;;55.72;28.35;;;2.30;96.60;;;;;;2037638;29;20103;-69
2021/03/03 00:38:35;;;;;;;56.30;28.17;;;2.30;96.60;;;;;;2037256;29;20670;-69
2021/03/03 00:39:35;;;;;;;55.42;28.10;;;2.30;96.90;;;;;;2036548;29;20028;-69
2021/03/03 00:40:36;;;;;;;60.13;29.70;;;2.30;96.60;;;;;;2036865;29;20415;-69
2021/03/03 00:41:36;;;;;;;59.08;29.67;;;2.30;96.50;;;;;;2037065;29;20075;-69
2021/03/03 00:42:37;;;;;;;58.08;28.13;;;2.30;96.60;;;;;;2037313;29;20079;-70
2021/03/03 00:43:38;;;;;;;57.35;28.60;;;2.20;96.60;;;;;;2036766;29;20038;-70
2021/03/03 00:44:39;;;;;;;54.92;27.83;;;2.20;96.60;;;;;;2034071;29;20028;-71
2021/03/03 00:45:39;;;;;;;55.63;27.95;;;2.30;96.70;;;;;;2034018;29;20032;-71
2021/03/03 00:46:40;;;;;;;55.95;28.15;;;2.30;96.70;;;;;;2025231;29;20028;-71
2021/03/03 00:47:41;;;;;;;58.45;29.02;;;2.20;96.50;;;;;;2017934;29;20127;-71
2021/03/03 00:48:44;;;;;;;56.75;28.42;;;2.20;96.50;;;;;;2018152;29;20025;-70
2021/03/03 00:49:45;;;;;;;57.65;28.67;;;2.20;96.60;;;;;;2025398;29;20048;-69
2021/03/03 00:50:46;;;;;;;54.55;27.70;;;2.20;96.60;;;;;;2025635;29;20032;-69
2021/03/03 00:51:49;;;;;;;55.15;27.67;;;2.20;96.60;;;;;;2017991;29;20489;-69
2021/03/03 00:52:51;;;;;;;54.47;27.88;;;2.20;96.50;;;;;;2026080;29;20037;-69
2021/03/03 00:53:52;;;;;;;51.08;26.30;;;2.20;96.60;;;;;;2033249;29;20632;-69
2021/03/03 00:54:53;;;;;;;52.25;26.70;;;2.20;96.50;;;;;;2018488;29;20059;-69
2021/03/03 00:55:53;;;;;;;54.60;27.60;;;2.10;96.60;;;;;;2026394;29;20029;-69
2021/03/03 00:56:59;;;;;;;55.67;27.75;;;2.20;96.70;;;;;;2033641;29;20099;-69
2021/03/03 00:57:59;;;;;;;55.90;28.63;;;2.20;97.00;;;;;;2025746;29;20029;-69
2021/03/03 00:59:00;;;;;;;60.10;29.02;;;2.20;96.80;;;;;;2017842;29;20052;-69
2021/03/03 01:00:03;;;;;;;57.47;28.88;;;2.20;96.80;;;;;;2025222;29;20488;-69
2021/03/03 01:01:04;;;;;;;58.88;28.35;;;2.20;96.70;;;;;;2025545;29;20049;-69
2021/03/03 01:02:07;;;;;;;54.95;27.13;;;2.20;96.70;;;;;;2025771;29;20504;-70
2021/03/03 01:03:08;;;;;;;56.20;27.88;;;2.20;96.80;;;;;;2025535;29;20036;-70
2021/03/03 01:04:12;;;;;;;54.90;27.30;;;2.20;96.70;;;;;;2025713;29;20528;-70
2021/03/03 01:05:15;;;;;;;57.20;27.85;;;2.20;96.70;;;;;;2033378;29;20138;-70
2021/03/03 01:06:19;;;;;;;57.05;27.38;;;2.20;96.60;;;;;;2033277;29;20075;-70
2021/03/03 01:07:20;;;;;;;55.92;28.13;;;2.10;96.70;;;;;;2025031;29;20103;-70
2021/03/03 01:08:21;;;;;;;55.47;27.65;;;2.20;96.80;;;;;;2017892;29;20029;-69
2021/03/03 01:09:23;;;;;;;55.38;28.25;;;2.10;96.70;;;;;;2017507;29;20178;-70
2021/03/03 01:10:24;;;;;;;52.28;26.73;;;2.10;96.60;;;;;;2025336;29;20611;-69
2021/03/03 01:11:27;;;;;;;48.08;24.73;;;2.10;96.50;;;;;;2032996;29;20027;-68
2021/03/03 01:12:33;;;;;;;51.38;25.17;;;2.10;96.50;;;;;;2033290;29;20063;-69
2021/03/03 01:13:38;;;;;;;51.90;26.05;;;2.00;96.50;;;;;;2025136;29;20485;-68
2021/03/03 01:14:43;;;;;;;54.13;27.15;;;2.00;96.60;;;;;;2025737;29;20089;-68
2021/03/03 01:15:47;;;;;;;57.28;27.35;;;2.00;96.80;;;;;;2025216;29;20079;-68
2021/03/03 01:16:57;;;;;;;53.13;26.98;;;2.00;96.90;;;;;;2018278;29;20148;-68
2021/03/03 01:18:07;;;;;;;55.30;27.17;;;2.00;96.90;;;;;;2018651;29;20504;-68
2021/03/03 01:19:08;;;;;;;57.33;27.73;;;2.00;96.90;;;;;;2025004;29;20044;-68
2021/03/03 01:20:10;;;;;;;54.38;26.63;;;2.00;97.00;;;;;;2033499;29;20028;-68
2021/03/03 01:21:10;;;;;;;55.03;27.20;;;2.00;97.00;;;;;;2033692;29;20412;-68
2021/03/03 01:22:11;;;;;;;51.58;26.77;;;2.00;97.10;;;;;;2033692;29;20278;-67
2021/03/03 01:23:12;;;;;;;52.15;26.55;;;2.00;97.00;;;;;;2033719;29;20043;-68
2021/03/03 01:24:13;;;;;;;54.00;27.25;;;2.00;97.00;;;;;;2033710;29;20032;-68
2021/03/03 01:25:14;;;;;;;53.08;27.35;;;2.00;96.90;;;;;;2033592;29;20476;-69
2021/03/03 01:26:15;;;;;;;52.83;26.92;;;1.90;96.90;;;;;;2033692;29;20033;-69
2021/03/03 01:27:15;;;;;;;56.30;28.00;;;1.90;97.00;;;;;;2033292;29;20540;-68
2021/03/03 01:28:16;;;;;;;56.20;27.38;;;1.90;97.00;;;;;;2033429;29;20036;-69
2021/03/03 01:29:16;;;;;;;51.75;27.30;;;2.00;97.00;;;;;;2033527;29;20032;-68
2021/03/03 01:30:17;;;;;;;60.17;29.38;;;1.90;97.00;;;;;;2033595;29;20038;-68
2021/03/03 01:31:18;;;;;;;58.22;29.83;;;1.90;97.00;;;;;;2033292;29;20028;-69
2021/03/03 01:32:18;;;;;;;55.58;27.38;;;1.90;97.20;;;;;;2033436;29;20047;-68
2021/03/03 01:33:30;;;;;;;55.15;27.25;;;1.90;97.20;;;;;;2032929;29;20032;-68
2021/03/03 01:34:30;;;;;;;58.92;28.20;;;1.90;97.20;;;;;;2033690;29;20032;-68
2021/03/03 01:35:31;;;;;;;57.70;28.40;;;1.90;97.10;;;;;;2033628;29;20115;-67
2021/03/03 01:36:32;;;;;;;54.95;26.77;;;1.90;97.10;;;;;;2024721;29;20029;-68
2021/03/03 01:37:33;;;;;;;53.17;26.92;;;1.90;97.20;;;;;;2025263;29;20080;-68
2021/03/03 01:38:33;;;;;;;56.72;28.20;;;1.90;97.30;;;;;;2033592;29;20102;-68
2021/03/03 01:39:34;;;;;;;56.42;28.30;;;1.90;97.30;;;;;;2033217;29;20036;-67
2021/03/03 01:40:34;;;;;;;52.95;26.90;;;1.90;97.20;;;;;;2033512;29;20020;-69
2021/03/03 01:41:35;;;;;;;53.25;26.98;;;1.90;97.20;;;;;;2033632;29;20088;-67
2021/03/03 01:42:36;;;;;;;52.88;26.55;;;1.90;97.10;;;;;;2032847;29;20092;-68
2021/03/03 01:43:37;;;;;;;50.03;25.45;;;1.90;97.10;;;;;;2032888;29;20036;-68
2021/03/03 01:44:37;;;;;;;51.38;26.23;;;1.80;97.10;;;;;;2033029;29;20393;-68
2021/03/03 01:45:38;;;;;;;50.22;25.52;;;1.80;97.10;;;;;;2033710;29;20115;-68
2021/03/03 01:46:39;;;;;;;50.53;25.33;;;1.80;97.20;;;;;;2033092;29;20028;-68
2021/03/03 01:47:39;;;;;;;54.67;27.63;;;1.80;97.20;;;;;;2033791;29;20032;-68
2021/03/03 01:48:41;;;;;;;53.75;27.92;;;1.80;97.30;;;;;;2033736;29;20407;-68
2021/03/03 01:49:42;;;;;;;54.97;27.13;;;1.80;97.30;;;;;;2033398;29;20043;-69
2021/03/03 01:50:42;;;;;;;53.15;26.98;;;1.80;97.40;;;;;;2033684;29;20059;-68
2021/03/03 01:51:43;;;;;;;49.40;25.05;;;1.80;97.40;;;;;;2033735;29;20091;-68
2021/03/03 01:52:44;;;;;;;51.17;26.23;;;1.80;97.40;;;;;;2026594;29;20485;-67
2021/03/03 01:53:45;;;;;;;51.53;26.13;;;1.70;97.40;;;;;;2028355;29;20084;-67
2021/03/03 01:54:46;;;;;;;53.50;27.52;;;1.70;97.30;;;;;;2036171;29;20035;-67
2021/03/03 01:55:46;;;;;;;55.53;27.83;;;1.70;97.40;;;;;;2036131;29;20146;-67
2021/03/03 01:56:47;;;;;;;58.92;28.83;;;1.70;97.50;;;;;;2026883;29;20650;-68
2021/03/03 01:57:48;;;;;;;56.90;27.20;;;1.70;97.70;;;;;;2027424;29;20033;-67
2021/03/03 01:58:49;;;;;;;54.90;27.38;;;1.70;97.70;;;;;;2034305;29;20024;-68
2021/03/03 01:59:49;;;;;;;57.10;29.23;;;1.70;98.00;;;;;;2032744;29;20028;-67
2021/03/03 02:00:50;;;;;;;57.85;28.38;;;1.70;97.50;;;;;;2032830;29;20024;-67
2021/03/03 02:01:51;;;;;;;54.88;27.50;;;1.80;97.60;;;;;;2024983;29;20047;-69
2021/03/03 02:02:51;;;;;;;53.00;27.27;;;1.70;97.50;;;;;;2025083;29;20416;-66
2021/03/03 02:03:52;;;;;;;55.88;28.60;;;1.70;97.50;;;;;;2024961;29;20041;-68
2021/03/03 02:04:56;;;;;;;54.17;27.38;;;1.70;97.60;;;;;;2024980;29;20560;-69
2021/03/03 02:06:05;;;;;;;54.10;27.52;;;1.70;97.50;;;;;;2033452;29;20760;-68
2021/03/03 02:07:09;;;;;;;53.90;26.92;;;1.70;97.50;;;;;;2032877;29;20028;-68
2021/03/03 02:08:16;;;;;;;55.42;27.33;;;1.70;97.50;;;;;;2033217;29;20024;-69
2021/03/03 02:09:30;;;;;;;53.90;27.17;;;1.70;97.50;;;;;;2033104;29;20036;-68
2021/03/03 02:10:59;;;;;;;53.22;26.30;;;1.70;97.50;;;;;;2033325;29;20130;-68
2021/03/03 02:12:16;;;;;;;52.92;26.08;;;1.60;97.60;;;;;;2033300;29;20145;-68
2021/03/03 02:13:27;;;;;;;58.00;27.35;;;1.60;97.60;;;;;;2033244;29;20087;-68
2021/03/03 02:14:29;;;;;;;53.28;26.95;;;1.60;97.70;;;;;;2033269;29;20064;-68
2021/03/03 02:15:32;;;;;;;55.58;28.13;;;1.60;97.70;;;;;;2033236;29;20463;-69
2021/03/03 02:16:36;;;;;;;58.35;27.67;;;1.60;97.70;;;;;;2032779;29;20021;-68
2021/03/03 02:17:40;;;;;;;53.15;26.67;;;1.60;97.80;;;;;;2033307;29;20400;-69
2021/03/03 02:18:42;;;;;;;56.53;28.55;;;1.60;97.70;;;;;;2033205;29;20036;-68
2021/03/03 02:19:44;;;;;;;54.22;27.17;;;1.60;97.70;;;;;;2032873;29;20020;-68
2021/03/03 02:20:56;;;;;;;53.63;27.20;;;1.60;97.80;;;;;;2033196;29;20023;-68
2021/03/03 02:22:15;;;;;;;54.67;26.45;;;1.60;97.70;;;;;;2033113;29;20501;-69
2021/03/03 02:23:50;;;;;;;51.78;26.83;;;1.60;97.70;;;;;;2024893;29;20044;-69
2021/03/03 02:25:02;;;;;;;54.38;26.42;;;1.60;97.60;;;;;;2029370;29;20174;-69
2021/03/03 02:26:04;;;;;;;55.22;27.40;;;1.60;97.70;;;;;;2033055;29;20031;-68
2021/03/03 02:27:05;;;;;;;60.03;28.58;;;1.60;97.70;;;;;;2032694;29;20039;-68
2021/03/03 02:28:07;;;;;;;57.33;27.63;;;1.60;97.80;;;;;;2033065;29;20114;-68
2021/03/03 02:29:15;;;;;;;57.60;27.48;;;1.60;97.80;;;;;;2032940;29;20039;-68
2021/03/03 02:30:20;;;;;;;55.60;27.50;;;1.60;97.70;;;;;;2033041;29;20381;-69
2021/03/03 02:31:20;;;;;;;57.50;27.75;;;1.60;97.70;;;;;;2033168;29;20036;-68
2021/03/03 02:32:21;;;;;;;57.72;27.13;;;1.60;97.70;;;;;;2032870;29;20044;-68
2021/03/03 02:33:23;;;;;;;55.08;27.13;;;1.60;97.70;;;;;;2033167;29;20107;-69
2021/03/03 02:34:26;;;;;;;54.10;27.92;;;1.60;97.70;;;;;;2033092;29;20028;-69
2021/03/03 02:35:29;;;;;;;56.75;28.42;;;1.60;97.70;;;;;;2033174;29;20031;-68
2021/03/03 02:36:30;;;;;;;54.22;26.83;;;1.60;97.70;;;;;;2024231;29;20847;-67
2021/03/03 02:37:32;;;;;;;54.60;27.50;;;1.50;97.70;;;;;;2024713;29;20520;-68
2021/03/03 02:38:33;;;;;;;52.22;26.52;;;1.60;97.80;;;;;;2033125;29;20036;-68
2021/03/03 02:39:34;;;;;;;52.58;27.05;;;1.60;97.70;;;;;;2024343;29;20032;-68
2021/03/03 02:40:35;;;;;;;53.58;26.98;;;1.50;97.60;;;;;;2024660;29;20107;-67
2021/03/03 02:41:37;;;;;;;53.85;26.00;;;1.50;97.70;;;;;;2033174;29;20036;-67
2021/03/03 02:42:39;;;;;;;50.75;25.83;;;1.50;97.70;;;;;;2032449;29;20080;-69
2021/03/03 02:43:42;;;;;;;51.67;27.05;;;1.50;97.70;;;;;;2032438;29;20072;-68
2021/03/03 02:44:42;;;;;;;58.70;28.23;;;1.50;97.80;;;;;;2032966;29;20039;-67
2021/03/03 02:45:46;;;;;;;54.05;27.48;;;1.50;97.80;;;;;;2033068;29;20039;-68
2021/03/03 02:46:47;;;;;;;53.03;27.05;;;1.50;97.80;;;;;;2032541;29;20039;-68
2021/03/03 02:47:49;;;;;;;51.42;26.40;;;1.50;97.80;;;;;;2033057;29;20037;-67
2021/03/03 02:48:50;;;;;;;54.45;27.42;;;1.50;98.10;;;;;;2024602;29;20508;-67
2021/03/03 02:49:50;;;;;;;55.78;27.58;;;1.50;97.90;;;;;;2024327;29;20417;-69
2021/03/03 02:50:51;;;;;;;55.40;27.45;;;1.50;97.90;;;;;;2033072;29;20043;-68
2021/03/03 02:51:51;;;;;;;54.38;27.23;;;1.50;97.90;;;;;;2033002;29;20452;-67
2021/03/03 02:52:54;;;;;;;49.70;25.05;;;1.50;97.90;;;;;;2033026;29;20116;-67
2021/03/03 02:53:55;;;;;;;50.20;25.48;;;1.50;97.90;;;;;;2032883;29;20540;-68
2021/03/03 02:54:55;;;;;;;52.10;26.40;;;1.50;98.00;;;;;;2033055;29;20084;-68
2021/03/03 02:55:56;;;;;;;51.22;25.65;;;1.50;97.90;;;;;;2033051;29;20068;-67
2021/03/03 02:56:56;;;;;;;53.35;27.35;;;1.50;98.00;;;;;;2032606;29;20080;-68
2021/03/03 02:57:59;;;;;;;54.72;27.88;;;1.50;98.00;;;;;;2032977;29;20043;-68
2021/03/03 02:59:04;;;;;;;54.90;26.88;;;1.50;98.00;;;;;;2033047;29;20043;-67
2021/03/03 03:00:05;;;;;;;54.95;27.85;;;1.50;98.00;;;;;;2024521;29;20029;-68
2021/03/03 03:01:09;;;;;;;54.05;27.58;;;1.50;97.90;;;;;;2017030;29;20891;-67
2021/03/03 03:02:12;;;;;;;51.33;26.00;;;1.40;97.90;;;;;;2024903;29;20073;-68
2021/03/03 03:03:33;;;;;;;52.60;26.67;;;1.50;98.00;;;;;;2033069;29;20132;-68
2021/03/03 03:04:38;;;;;;;54.15;26.77;;;1.50;98.00;;;;;;2032974;29;20040;-67
2021/03/03 03:05:45;;;;;;;50.25;26.42;;;1.40;98.00;;;;;;2033065;29;20028;-67
2021/03/03 03:06:48;;;;;;;51.58;25.90;;;1.40;98.00;;;;;;2024082;29;20160;-67
2021/03/03 03:07:51;;;;;;;53.00;26.52;;;1.40;98.00;;;;;;2024790;29;20040;-67
2021/03/03 03:08:57;;;;;;;56.00;27.65;;;1.40;97.90;;;;;;2024499;29;20037;-67
2021/03/03 03:10:00;;;;;;;53.70;28.33;;;1.40;98.30;;;;;;2024990;29;20040;-67
2021/03/03 03:11:07;;;;;;;55.03;27.63;;;1.40;97.90;;;;;;2032879;29;20090;-68
2021/03/03 03:12:10;;;;;;;54.10;26.98;;;1.40;97.90;;;;;;2032857;29;20042;-67
2021/03/03 03:13:13;;;;;;;55.05;27.17;;;1.40;98.00;;;;;;2033069;29;20103;-68
2021/03/03 03:14:18;;;;;;;54.88;27.52;;;1.30;97.90;;;;;;2033369;29;20024;-68
2021/03/03 03:15:22;;;;;;;54.25;27.75;;;1.30;98.00;;;;;;2033705;29;20083;-68
2021/03/03 03:16:23;;;;;;;57.38;28.58;;;1.30;98.00;;;;;;2033817;29;20028;-68
2021/03/03 03:17:24;;;;;;;54.65;27.30;;;1.30;98.10;;;;;;2033189;29;20476;-68
2021/03/03 03:18:30;;;;;;;54.47;27.25;;;1.30;98.10;;;;;;2033517;29;20067;-68
2021/03/03 03:19:35;;;;;;;55.42;27.95;;;1.30;98.10;;;;;;2032176;29;20036;-68
2021/03/03 03:20:36;;;;;;;54.88;27.00;;;1.30;98.00;;;;;;2031989;29;20620;-69
2021/03/03 03:21:39;;;;;;;52.15;26.70;;;1.20;98.10;;;;;;2017259;29;20431;-68
2021/03/03 03:22:40;;;;;;;51.42;26.23;;;1.20;98.10;;;;;;2025150;29;20385;-68
2021/03/03 03:23:41;;;;;;;52.03;25.60;;;1.20;98.10;;;;;;2032689;29;20123;-68
2021/03/03 03:24:43;;;;;;;57.17;28.50;;;1.20;98.10;;;;;;2032437;29;20138;-69
2021/03/03 03:25:45;;;;;;;54.30;26.50;;;1.20;98.20;;;;;;2033196;29;20032;-70
2021/03/03 03:26:48;;;;;;;54.75;26.88;;;1.20;98.20;;;;;;2024318;29;20096;-68
2021/03/03 03:27:49;;;;;;;53.05;26.90;;;1.20;98.30;;;;;;2025050;29;20025;-69
2021/03/03 03:28:50;;;;;;;55.33;27.27;;;1.20;98.60;;;;;;2032242;29;20047;-68
2021/03/03 03:29:52;;;;;;;54.17;26.90;;;1.20;98.40;;;;;;2031897;29;20415;-67
2021/03/03 03:30:54;;;;;;;54.47;27.42;;;1.20;98.40;;;;;;2024429;29;20546;-67
2021/03/03 03:31:56;;;;;;;57.55;27.45;;;1.20;98.30;;;;;;2032716;29;20400;-67
2021/03/03 03:32:58;;;;;;;55.25;27.75;;;1.20;98.30;;;;;;2024292;29;20033;-68
2021/03/03 03:33:59;;;;;;;54.20;27.17;;;1.20;98.70;;;;;;2024673;29;20029;-68
2021/03/03 03:35:00;;;;;;;54.30;26.88;;;1.20;98.40;;;;;;2032882;29;20028;-67
2021/03/03 03:36:03;;;;;;;54.40;26.98;;;1.20;98.40;;;;;;2032726;29;20488;-68
2021/03/03 03:37:05;;;;;;;55.55;27.30;;;1.20;98.40;;;;;;2032334;29;20377;-68
2021/03/03 03:38:06;;;;;;;57.17;26.80;;;1.20;98.40;;;;;;2032136;29;20503;-69
2021/03/03 03:39:09;;;;;;;56.10;27.25;;;1.20;98.40;;;;;;2031930;29;20056;-68
2021/03/03 03:40:10;;;;;;;52.47;26.48;;;1.20;98.40;;;;;;2032682;29;20036;-68
2021/03/03 03:41:13;;;;;;;55.35;26.33;;;1.20;98.50;;;;;;2032882;29;20024;-68
2021/03/03 03:42:15;;;;;;;54.90;27.27;;;1.20;98.50;;;;;;2032709;29;20692;-69
2021/03/03 03:43:16;;;;;;;53.88;27.20;;;1.20;98.50;;;;;;2032898;29;20043;-67
2021/03/03 03:44:19;;;;;;;55.10;26.58;;;1.20;98.50;;;;;;2032719;29;20138;-68
2021/03/03 03:45:22;;;;;;;54.58;26.90;;;1.20;98.40;;;;;;2032709;29;20084;-68
2021/03/03 03:46:23;;;;;;;53.22;26.33;;;1.10;98.40;;;;;;2032734;29;20047;-68
2021/03/03 03:47:24;;;;;;;51.10;26.48;;;1.20;98.40;;;;;;2032425;29;20478;-69
2021/03/03 03:48:25;;;;;;;52.42;26.08;;;1.10;98.50;;;;;;2032694;29;20425;-70
2021/03/03 03:49:26;;;;;;;53.15;26.23;;;1.10;98.40;;;;;;2016344;29;20485;-69
2021/03/03 03:50:27;;;;;;;55.10;26.20;;;1.10;98.40;;;;;;2016505;29;20041;-70
2021/03/03 03:51:28;;;;;;;51.53;25.92;;;1.10;98.40;;;;;;2032853;29;20036;-67
2021/03/03 03:52:29;;;;;;;53.50;26.83;;;1.10;98.40;;;;;;2031890;29;20071;-69
2021/03/03 03:53:31;;;;;;;54.28;26.92;;;1.10;98.50;;;;;;2032276;29;20500;-68
2021/03/03 03:54:32;;;;;;;53.63;26.85;;;1.10;98.60;;;;;;2032717;29;20051;-68
2021/03/03 03:55:34;;;;;;;54.20;26.25;;;1.00;98.60;;;;;;2032972;29;20043;-68
2021/03/03 03:56:35;;;;;;;55.63;26.85;;;1.00;98.60;;;;;;2032961;29;20101;-68
2021/03/03 03:58:03;;;;;;;54.58;26.25;;;1.00;98.60;;;;;;2025708;29;20028;-69
2021/03/03 03:59:03;;;;;;;55.50;27.77;;;1.00;98.50;;;;;;2018907;29;20045;-70
2021/03/03 04:00:05;;;;;;;54.92;28.52;;;1.00;98.60;;;;;;2025694;29;20526;-70
2021/03/03 04:01:06;;;;;;;55.70;27.50;;;1.00;98.60;;;;;;2034192;29;20039;-71
2021/03/03 04:02:07;;;;;;;59.92;28.35;;;1.00;98.70;;;;;;2025701;29;20037;-71
2021/03/03 04:03:08;;;;;;;57.45;28.33;;;1.00;98.80;;;;;;2025864;29;20115;-69
2021/03/03 04:04:08;;;;;;;56.70;28.02;;;1.00;98.70;;;;;;2034294;29;20091;-69
2021/03/03 04:05:10;;;;;;;56.78;28.10;;;1.00;98.80;;;;;;2034254;29;20032;-70
2021/03/03 04:06:11;;;;;;;53.55;26.42;;;1.00;98.80;;;;;;2034198;29;20103;-70
2021/03/03 04:07:11;;;;;;;54.60;25.80;;;1.00;98.90;;;;;;2033761;29;20032;-70
2021/03/03 04:08:12;;;;;;;51.17;26.52;;;1.00;98.80;;;;;;2025755;29;20087;-68
2021/03/03 04:09:13;;;;;;;50.88;26.20;;;1.00;98.80;;;;;;2025537;29;20032;-70
2021/03/03 04:10:19;;;;;;;55.75;26.80;;;1.00;98.80;;;;;;2034048;29;20103;-70
2021/03/03 04:11:20;;;;;;;56.08;26.92;;;1.00;98.80;;;;;;2034307;29;20396;-70
2021/03/03 04:12:20;;;;;;;54.58;26.63;;;1.00;98.80;;;;;;2025645;29;20120;-70
2021/03/03 04:13:21;;;;;;;53.42;26.77;;;1.00;98.90;;;;;;2025802;29;20572;-69
2021/03/03 04:14:22;;;;;;;58.00;27.35;;;1.00;98.90;;;;;;2033612;29;20443;-70
2021/03/03 04:15:23;;;;;;;54.30;27.30;;;1.00;98.80;;;;;;2033624;29;20381;-70
2021/03/03 04:16:24;;;;;;;55.75;27.13;;;0.90;98.80;;;;;;2034205;29;20163;-71
2021/03/03 04:17:24;;;;;;;53.22;26.85;;;0.90;98.80;;;;;;2033790;29;20032;-71
2021/03/03 04:18:25;;;;;;;52.92;27.08;;;1.00;99.00;;;;;;2018059;29;20508;-70
2021/03/03 04:19:26;;;;;;;55.10;26.70;;;1.00;99.00;;;;;;2017684;29;20077;-70
2021/03/03 04:20:26;;;;;;;56.88;27.35;;;1.00;99.30;;;;;;2033947;29;20472;-71
2021/03/03 04:21:27;;;;;;;54.85;25.48;;;1.00;98.90;;;;;;2034193;29;20118;-71
2021/03/03 04:22:27;;;;;;;54.45;26.52;;;1.00;98.80;;;;;;2034166;29;20036;-68
2021/03/03 04:23:28;;;;;;;57.30;27.77;;;1.00;98.80;;;;;;2034242;29;20055;-71
2021/03/03 04:24:29;;;;;;;53.25;26.42;;;0.90;98.80;;;;;;2034143;29;20079;-71
2021/03/03 04:25:29;;;;;;;54.90;26.13;;;0.90;98.80;;;;;;2034134;29;20024;-69
2021/03/03 04:26:30;;;;;;;53.78;26.08;;;0.90;98.80;;;;;;2033629;29;20506;-70
2021/03/03 04:27:30;;;;;;;52.72;25.90;;;0.90;98.80;;;;;;2034140;29;20040;-71
2021/03/03 04:28:31;;;;;;;50.95;26.02;;;0.90;98.80;;;;;;2033527;29;20036;-71
2021/03/03 04:29:31;;;;;;;53.53;25.20;;;0.90;98.80;;;;;;2033226;29;20036;-70
2021/03/03 04:30:33;;;;;;;52.15;25.13;;;0.90;98.80;;;;;;2034022;29;20080;-70
2021/03/03 04:31:34;;;;;;;52.33;25.70;;;0.90;98.80;;;;;;2034024;29;20064;-70
2021/03/03 04:32:34;;;;;;;52.97;25.95;;;0.90;98.80;;;;;;2025534;29;20039;-68
2021/03/03 04:33:35;;;;;;;52.78;26.10;;;0.90;98.90;;;;;;2025546;29;20036;-71
2021/03/03 04:34:35;;;;;;;52.10;25.88;;;0.90;98.90;;;;;;2025477;29;20032;-70
2021/03/03 04:35:36;;;;;;;54.35;26.70;;;0.90;98.90;;;;;;2025584;29;20032;-70
2021/03/03 04:36:37;;;;;;;52.80;25.92;;;0.90;99.00;;;;;;2033418;29;20028;-70
2021/03/03 04:37:38;;;;;;;51.85;25.70;;;0.90;99.00;;;;;;2034012;29;20033;-71
2021/03/03 04:38:39;;;;;;;55.28;27.35;;;0.90;99.00;;;;;;2033924;29;20028;-70
2021/03/03 04:39:39;;;;;;;51.65;25.70;;;0.90;99.00;;;;;;2025349;29;20064;-71
2021/03/03 04:40:40;;;;;;;54.33;25.98;;;0.90;98.90;;;;;;2025502;29;20071;-70
2021/03/03 04:41:40;;;;;;;58.15;27.15;;;0.90;98.90;;;;;;2025520;29;20016;-70
2021/03/03 04:42:41;;;;;;;50.42;25.75;;;0.90;98.90;;;;;;2025535;29;20097;-68
2021/03/03 04:43:42;;;;;;;56.88;26.30;;;0.90;98.90;;;;;;2033299;29;20119;-71
2021/03/03 04:44:42;;;;;;;52.88;25.30;;;0.90;98.90;;;;;;2033344;29;20419;-70
2021/03/03 04:45:43;;;;;;;55.75;26.73;;;0.90;99.00;;;;;;2034021;29;20032;-71
2021/03/03 04:46:44;;;;;;;53.00;25.75;;;0.90;98.90;;;;;;2025039;29;20110;-71
2021/03/03 04:47:44;;;;;;;49.05;24.85;;;0.90;98.90;;;;;;2025673;29;20036;-70
2021/03/03 04:48:45;;;;;;;55.10;25.88;;;0.90;98.90;;;;;;2025529;29;20053;-70
2021/03/03 04:49:45;;;;;;;57.28;26.63;;;0.90;98.90;;;;;;2025329;29;20040;-70
2021/03/03 04:50:46;;;;;;;52.15;25.98;;;0.80;98.90;;;;;;2025382;29;20032;-71
2021/03/03 04:51:46;;;;;;;52.80;26.35;;;0.80;98.90;;;;;;2025432;29;20021;-70
2021/03/03 04:52:47;;;;;;;48.85;25.88;;;0.80;98.90;;;;;;2033921;29;20040;-70
2021/03/03 04:53:48;;;;;;;52.50;26.20;;;0.80;98.90;;;;;;2025505;29;20047;-71
2021/03/03 04:54:48;;;;;;;52.72;25.65;;;0.80;99.10;;;;;;2025389;29;20161;-69
2021/03/03 04:55:49;;;;;;;53.30;25.83;;;0.80;99.10;;;;;;2033895;29;20052;-70
2021/03/03 04:56:50;;;;;;;53.72;25.58;;;0.80;99.10;;;;;;2033296;29;20032;-71
2021/03/03 04:57:50;;;;;;;60.40;28.02;;;0.80;99.10;;;;;;2025553;29;20033;-70
2021/03/03 04:58:51;;;;;;;53.38;26.65;;;0.80;99.10;;;;;;2025479;29;20028;-70
2021/03/03 04:59:52;;;;;;;53.47;27.25;;;0.80;99.10;;;;;;2033563;29;20032;-70
2021/03/03 05:00:52;;;;;;;55.60;27.15;;;0.80;99.20;;;;;;2033808;29;20043;-71
2021/03/03 05:01:53;;;;;;;53.00;27.25;;;0.80;99.20;;;;;;2033855;29;20044;-70
2021/03/03 05:02:53;;;;;;;53.67;26.58;;;0.80;99.20;;;;;;2033854;29;20078;-70
2021/03/03 05:03:54;;;;;;;60.85;27.58;;;0.80;99.20;;;;;;2033956;29;20119;-70
2021/03/03 05:04:54;;;;;;;54.58;26.10;;;0.80;99.20;;;;;;2035156;29;20036;-70
2021/03/03 05:05:55;;;;;;;58.22;27.17;;;0.80;99.20;;;;;;2035352;29;20039;-71
2021/03/03 05:06:56;;;;;;;55.30;26.50;;;0.80;99.20;;;;;;2035507;29;20476;-71
2021/03/03 05:07:56;;;;;;;58.72;28.38;;;0.80;99.20;;;;;;2035271;29;20054;-71
2021/03/03 05:08:57;;;;;;;57.63;26.83;;;0.80;99.20;;;;;;2035074;29;20087;-70
2021/03/03 05:09:57;;;;;;;56.40;27.50;;;0.80;99.10;;;;;;2035060;29;20064;-71
2021/03/03 05:10:58;;;;;;;56.28;27.35;;;0.80;99.10;;;;;;2035066;29;20099;-71
2021/03/03 05:11:58;;;;;;;58.72;27.75;;;0.80;99.20;;;;;;2035585;29;20436;-71
2021/03/03 05:12:59;;;;;;;55.35;27.25;;;0.80;99.20;;;;;;2035845;29;20131;-71
2021/03/03 05:13:59;;;;;;;62.65;29.08;;;0.80;99.10;;;;;;2035611;29;20036;-71
2021/03/03 05:15:00;;;;;;;57.75;27.50;;;0.80;99.20;;;;;;2035299;29;20493;-72
2021/03/03 05:16:00;;;;;;;57.13;27.35;;;0.80;99.20;;;;;;2034895;29;20035;-72
2021/03/03 05:17:01;;;;;;;54.63;26.23;;;0.80;99.30;;;;;;2034614;29;20040;-71
2021/03/03 05:18:02;;;;;;;56.85;27.95;;;0.80;99.20;;;;;;2035718;29;20032;-71